createdAt,value
2022-10-06T00:02:25.438Z,100.00
2022-10-06T00:04:52.163Z,100.00
2022-10-06T00:07:18.872Z,100.00
2022-10-06T00:09:45.638Z,100.00
2022-10-06T00:12:12.314Z,100.00
2022-10-06T00:14:39.030Z,100.00
2022-10-06T00:17:05.805Z,100.00
2022-10-06T00:19:32.506Z,100.00
2022-10-06T00:21:59.174Z,100.00
2022-10-06T00:24:25.966Z,100.00
2022-10-06T00:26:52.651Z,100.00
2022-10-06T00:29:19.296Z,100.00
2022-10-06T00:31:46.133Z,100.00
2022-10-06T00:34:13.233Z,100.00
2022-10-06T00:36:40.306Z,100.00
2022-10-06T00:39:07.106Z,100.00
2022-10-06T00:41:33.811Z,100.00
2022-10-06T00:44:01.870Z,100.00
2022-10-06T00:46:45.621Z,100.00
2022-10-06T00:49:25.025Z,100.00
2022-10-06T00:52:00.237Z,100.00
2022-10-06T00:54:27.855Z,100.00
2022-10-06T00:56:54.634Z,100.00
2022-10-06T00:59:21.476Z,100.00
2022-10-06T01:01:51.738Z,100.00
2022-10-06T01:04:18.813Z,100.00
2022-10-06T01:06:50.049Z,100.00
2022-10-06T01:09:18.617Z,100.00
2022-10-06T01:11:48.540Z,100.00
2022-10-06T01:14:15.511Z,100.00
2022-10-06T01:16:45.401Z,100.00
2022-10-06T01:19:21.899Z,100.00
2022-10-06T01:21:51.402Z,100.00
2022-10-06T01:24:18.975Z,100.00
2022-10-06T01:26:50.215Z,100.00
2022-10-06T01:29:17.616Z,100.00
2022-10-06T01:31:44.350Z,100.00
2022-10-06T01:34:11.224Z,100.00
2022-10-06T01:36:40.783Z,100.00
2022-10-06T01:39:07.480Z,100.00
2022-10-06T01:41:34.627Z,100.00
2022-10-06T01:44:01.324Z,100.00
2022-10-06T01:46:30.093Z,100.00
2022-10-06T01:48:56.992Z,100.00
2022-10-06T01:51:23.762Z,100.00
2022-10-06T01:53:50.447Z,100.00
2022-10-06T01:56:17.304Z,100.00
2022-10-06T01:58:43.948Z,100.00
2022-10-06T02:01:10.818Z,100.00
2022-10-06T02:03:39.057Z,100.00
2022-10-06T02:06:06.107Z,100.00
2022-10-06T02:08:33.262Z,100.00
2022-10-06T02:11:09.342Z,100.00
2022-10-06T02:13:37.630Z,100.00
2022-10-06T02:16:06.912Z,100.00
2022-10-06T02:18:34.674Z,100.00
2022-10-06T02:21:02.818Z,100.00
2022-10-06T02:23:30.533Z,100.00
2022-10-06T02:26:01.891Z,100.00
2022-10-06T02:28:29.500Z,100.00
2022-10-06T02:31:04.396Z,100.00
2022-10-06T02:33:31.770Z,100.00
2022-10-06T02:35:58.548Z,100.00
2022-10-06T02:38:28.249Z,100.00
2022-10-06T02:40:55.145Z,100.00
2022-10-06T02:43:22.133Z,100.00
2022-10-06T02:46:00.321Z,100.00
2022-10-06T02:48:28.109Z,100.00
2022-10-06T02:51:03.289Z,100.00
2022-10-06T02:53:30.407Z,100.00
2022-10-06T02:56:02.084Z,100.00
2022-10-06T02:58:30.518Z,100.00
2022-10-06T03:01:09.600Z,100.00
2022-10-06T03:03:37.106Z,100.00
2022-10-06T03:06:06.835Z,100.00
2022-10-06T03:08:33.920Z,100.00
2022-10-06T03:11:02.372Z,100.00
2022-10-06T03:13:30.712Z,100.00
2022-10-06T03:15:57.762Z,100.00
2022-10-06T03:18:25.029Z,100.00
2022-10-06T03:20:54.096Z,100.00
2022-10-06T03:23:20.757Z,100.00
2022-10-06T03:25:55.968Z,100.00
2022-10-06T03:28:22.704Z,100.00
2022-10-06T03:30:49.593Z,100.00
2022-10-06T03:33:16.329Z,100.00
2022-10-06T03:35:43.033Z,100.00
2022-10-06T03:38:09.704Z,100.00
2022-10-06T03:40:36.372Z,100.00
2022-10-06T03:43:03.043Z,100.00
2022-10-06T03:45:29.702Z,100.00
2022-10-06T03:47:56.397Z,100.00
2022-10-06T03:50:23.057Z,100.00
2022-10-06T03:52:51.512Z,100.00
2022-10-06T03:55:18.203Z,100.00
2022-10-06T03:57:44.858Z,100.00
2022-10-06T04:00:12.481Z,100.00
2022-10-06T04:02:39.189Z,100.00
2022-10-06T04:05:06.411Z,100.00
2022-10-06T04:07:33.065Z,100.00
2022-10-06T04:09:59.817Z,100.00
2022-10-06T04:12:26.658Z,100.00
2022-10-06T04:14:57.790Z,100.00
2022-10-06T04:17:26.575Z,100.00
2022-10-06T04:19:53.241Z,100.00
2022-10-06T04:22:19.961Z,100.00
2022-10-06T04:24:46.644Z,100.00
2022-10-06T04:27:28.350Z,100.00
2022-10-06T04:29:56.498Z,100.00
2022-10-06T04:32:23.346Z,100.00
2022-10-06T04:34:49.993Z,100.00
2022-10-06T04:37:16.790Z,100.00
2022-10-06T04:39:43.584Z,100.00
2022-10-06T04:42:10.250Z,100.00
2022-10-06T04:44:37.039Z,100.00
2022-10-06T04:47:04.438Z,100.00
2022-10-06T04:49:31.821Z,100.00
2022-10-06T04:51:58.536Z,100.00
2022-10-06T04:54:27.932Z,100.00
2022-10-06T04:56:57.267Z,100.00
2022-10-06T04:59:43.925Z,100.00
2022-10-06T05:02:10.971Z,100.00
2022-10-06T05:04:37.696Z,100.00
2022-10-06T05:07:04.371Z,100.00
2022-10-06T05:09:31.338Z,100.00
2022-10-06T05:11:58.834Z,100.00
2022-10-06T05:14:25.512Z,100.00
2022-10-06T05:16:52.224Z,100.00
2022-10-06T05:19:19.012Z,100.00
2022-10-06T05:21:45.677Z,100.00
2022-10-06T05:24:12.381Z,100.00
2022-10-06T05:26:39.042Z,100.00
2022-10-06T05:29:05.764Z,100.00
2022-10-06T05:31:35.233Z,100.00
2022-10-06T05:34:03.465Z,100.00
2022-10-06T05:36:34.158Z,100.00
2022-10-06T05:39:01.599Z,100.00
2022-10-06T05:41:30.625Z,100.00
2022-10-06T05:43:58.715Z,100.00
2022-10-06T05:46:28.725Z,100.00
2022-10-06T05:49:00.970Z,100.00
2022-10-06T05:51:32.569Z,100.00
2022-10-06T05:53:59.760Z,100.00
2022-10-06T05:56:32.390Z,100.00
2022-10-06T05:59:00.279Z,100.00
2022-10-06T06:01:40.259Z,100.00
2022-10-06T06:04:09.618Z,100.00
2022-10-06T06:06:44.343Z,100.00
2022-10-06T06:09:12.393Z,100.00
2022-10-06T06:11:41.778Z,100.00
2022-10-06T06:14:14.229Z,100.00
2022-10-06T06:16:42.268Z,100.00
2022-10-06T06:19:11.410Z,100.00
2022-10-06T06:21:38.679Z,100.00
2022-10-06T06:24:06.309Z,100.00
2022-10-06T06:26:36.931Z,100.00
2022-10-06T06:29:05.527Z,100.00
2022-10-06T06:31:37.443Z,100.00
2022-10-06T06:34:06.883Z,100.00
2022-10-06T06:36:41.100Z,100.00
2022-10-06T06:39:13.741Z,100.00
2022-10-06T06:41:49.043Z,100.00
2022-10-06T06:44:16.300Z,100.00
2022-10-06T06:46:45.005Z,100.00
2022-10-06T06:49:12.317Z,100.00
2022-10-06T06:51:44.113Z,100.00
2022-10-06T06:54:13.089Z,100.00
2022-10-06T06:56:40.487Z,100.00
2022-10-06T06:59:09.264Z,100.00
2022-10-06T07:01:37.271Z,100.00
2022-10-06T07:04:04.692Z,100.00
2022-10-06T07:06:32.462Z,100.00
2022-10-06T07:09:00.036Z,100.00
2022-10-06T07:11:32.540Z,88.88
2022-10-06T07:14:04.928Z,79.67
2022-10-06T07:16:51.145Z,74.81
2022-10-06T07:19:57.954Z,71.20
2022-10-06T07:22:46.280Z,66.89
2022-10-06T07:25:26.363Z,62.84
2022-10-06T07:27:53.720Z,61.72
2022-10-06T07:30:27.786Z,61.22
2022-10-06T07:32:55.457Z,62.94
2022-10-06T07:35:23.942Z,58.58
2022-10-06T07:37:53.335Z,60.12
2022-10-06T07:40:20.152Z,56.38
2022-10-06T07:42:52.307Z,58.18
2022-10-06T07:45:39.181Z,59.42
2022-10-06T07:48:14.644Z,55.55
2022-10-06T07:50:44.770Z,49.39
2022-10-06T07:53:12.633Z,50.89
2022-10-06T07:55:41.386Z,48.70
2022-10-06T07:58:19.628Z,49.08
2022-10-06T08:00:48.746Z,45.38
2022-10-06T08:03:19.311Z,45.69
2022-10-06T08:05:50.295Z,44.02
2022-10-06T08:08:18.047Z,43.01
2022-10-06T08:10:52.956Z,42.27
2022-10-06T08:13:19.928Z,41.47
2022-10-06T08:15:47.616Z,40.89
2022-10-06T08:18:33.772Z,40.63
2022-10-06T08:21:01.169Z,40.48
2022-10-06T08:23:27.856Z,37.59
2022-10-06T08:25:56.450Z,37.98
2022-10-06T08:28:24.540Z,38.30
2022-10-06T08:30:52.542Z,37.68
2022-10-06T08:33:21.395Z,39.43
2022-10-06T08:35:48.418Z,38.43
2022-10-06T08:38:15.156Z,36.74
2022-10-06T08:40:44.054Z,36.29
2022-10-06T08:43:19.710Z,36.77
2022-10-06T08:45:47.754Z,35.53
2022-10-06T08:48:18.944Z,37.47
2022-10-06T08:51:06.141Z,38.65
2022-10-06T08:53:47.189Z,38.78
2022-10-06T08:56:22.921Z,39.59
2022-10-06T08:59:04.623Z,42.31
2022-10-06T09:01:57.582Z,43.15
2022-10-06T09:04:32.157Z,43.40
2022-10-06T09:07:12.558Z,42.59
2022-10-06T09:10:03.657Z,45.36
2022-10-06T09:12:33.160Z,47.32
